Latest Coastal Weather Observations for Lucinda

IDQ60701

Issued at 2:15 am EST Sunday 31 August 2014 (issued every 10 minutes, with the page automatically refreshed every 10 minutes)

About coastal observations | Map of coastal stations | Coastal observations for QLD | Marine services | Other Formats
Station Details ID: 032141 Name: LUCINDA POINT Lat: -18.52 Lon: 146.39 Height: 10.0 m
Data from the previous 72 hours. | See also: Recent months for locations in Queensland
Date/Time
EST
Temp

°C
Wind Pressure Rain
since 9am
mm
Weather Cloud Vis
km
Sea
Height
m
Swell
Dir
 
Speed
knots
Gust
knots
hPa Trend Height
m
Period
s
Dir
31/02:00am 18.8 WSW 10 11 1016.7 - 0.0 - - - - - - -
31/01:30am 18.8 WSW 9 10 1017.0 - 0.0 - - - - - - -
31/01:00am 19.2 SW 10 11 1017.2 - 0.0 - - - - - - -
31/12:30am 21.8 E 7 9 1017.4 - 0.0 - - - - - - -
31/12:00am 21.8 ENE 6 8 1017.7 - 0.0 - - - - - - -
 
Date/Time
EST
Temp

°C
Wind Pressure Rain
since 9am
mm
Weather Cloud Vis
km
Sea
Height
m
Swell
Dir
 
Speed
knots
Gust
knots
hPa Trend Height
m
Period
s
Dir
30/11:30pm 21.8 ENE 7 9 1017.8 - 0.0 - - - - - - -
30/11:00pm 21.7 ESE 9 12 1017.8 - 0.0 - - - - - - -
30/10:30pm 21.7 ESE 9 12 1018.0 - 0.0 - - - - - - -
30/10:00pm 21.6 ESE 9 13 1018.0 - 0.0 - - - - - - -
30/09:30pm 21.6 ESE 9 13 1017.9 - 0.0 - - - - - - -
30/09:00pm 21.8 E 10 14 1018.1 - 0.0 - - - - - - -
30/08:30pm 21.7 ESE 11 15 1018.1 - 0.0 - - - - - - -
30/08:00pm 21.8 E 11 15 1018.0 - 0.0 - - - - - - -
30/07:30pm 21.7 E 9 12 1017.4 - 0.0 - - - - - - -
30/07:00pm 21.8 E 11 16 1017.0 - 0.0 - - - - - - -
30/06:30pm 21.8 ESE 11 16 1016.6 - 0.0 - - - - - - -
30/06:00pm 21.8 ESE 10 15 1016.5 - 0.0 - - - - - - -
30/05:30pm 22.5 E 9 14 1016.3 - 0.0 - - - - - - -
30/05:00pm 22.6 ESE 10 15 1016.2 - 0.0 - - - - - - -
30/04:30pm 22.6 ESE 11 16 1016.0 - 0.0 - - - - - - -
30/04:00pm 22.5 SE 8 13 1016.0 - 0.0 - - - - - - -
30/03:30pm 22.6 ESE 8 13 1016.2 - 0.0 - - - - - - -
30/03:00pm 23.1 SSE 7 11 1016.2 - 0.0 - - - - - - -
30/02:30pm 22.4 S 9 14 1016.5 - 0.0 - - - - - - -
30/02:00pm 22.0 S 10 13 1016.9 - 0.0 - - - - - - -
30/01:30pm 21.5 S 9 11 1017.4 - 0.0 - - - - - - -
30/01:00pm 21.2 S 10 11 1017.8 - 0.0 - - - - - - -
30/12:30pm 21.3 S 10 12 1018.2 - 0.0 - - - - - - -
30/12:00pm 21.0 S 13 15 1018.4 - 0.0 - - - - - - -
30/11:30am 20.9 S 14 16 1018.9 - 0.0 - - - - - - -
30/11:00am 21.0 S 12 15 1019.4 - 0.0 - - - - - - -
30/10:30am 20.8 S 13 16 1019.5 - 0.0 - - - - - - -
30/10:00am 21.0 S 13 16 1019.6 - 0.0 - - - - - - -
30/09:30am 20.6 S 15 17 1020.0 - 0.0 - - - - - - -
30/09:00am 20.7 S 15 18 1019.7 - 0.0 - - - - - - -
30/08:30am 20.9 S 10 14 1019.3 - 0.0 - - - - - - -
30/08:00am 21.0 S 11 14 1019.5 - 0.0 - - - - - - -
30/07:30am 21.1 S 7 9 1018.8 - 0.0 - - - - - - -
30/07:00am 21.1 SSE 7 11 1018.6 - 0.0 - - - - - - -
30/06:30am 21.5 SSE 10 19 1018.1 - 0.0 - - - - - - -
30/06:00am 21.6 SSE 7 13 1018.1 - 0.0 - - - - - - -
30/05:30am 21.6 SSE 8 16 1017.8 - 0.0 - - - - - - -
30/05:00am 21.7 SE 9 15 1017.8 - 0.0 - - - - - - -
30/04:30am 21.6 SE 11 17 1017.4 - 0.0 - - - - - - -
30/04:00am 21.6 SE 10 16 1017.6 - 0.0 - - - - - - -
30/03:30am 21.6 SE 9 16 1017.6 - 0.0 - - - - - - -
30/03:00am 21.5 ESE 10 17 1017.4 - 0.0 - - - - - - -
30/02:30am 21.5 SE 11 18 1017.6 - 0.0 - - - - - - -
30/02:00am 21.6 ESE 11 18 1017.6 - 0.0 - - - - - - -
30/01:30am 21.6 SE 11 18 1017.7 - 0.0 - - - - - - -
30/01:00am 21.6 SE 11 18 1017.8 - 0.0 - - - - - - -
30/12:30am 21.6 SE 11 19 1018.0 - 0.0 - - - - - - -
30/12:00am 21.7 SE 11 17 1018.3 - 0.0 - - - - - - -
 
Date/Time
EST
Temp

°C
Wind Pressure Rain
since 9am
mm
Weather Cloud Vis
km
Sea
Height
m
Swell
Dir
 
Speed
knots
Gust
knots
hPa Trend Height
m
Period
s
Dir
29/11:30pm 21.8 ESE 11 17 1018.3 - 0.0 - - - - - - -
29/11:00pm 21.8 SE 11 16 1018.5 - 0.0 - - - - - - -
29/10:30pm 21.9 SE 11 16 1018.6 - 0.0 - - - - - - -
29/10:00pm 21.9 SE 10 15 1018.9 - 0.0 - - - - - - -
29/09:30pm 21.9 SE 7 11 1019.0 - 0.0 - - - - - - -
29/09:00pm 22.0 SE 7 13 1019.0 - 0.0 - - - - - - -
29/08:30pm 22.1 SE 6 12 1018.9 - 0.0 - - - - - - -
29/08:00pm 22.1 ESE 11 16 1018.5 - 0.0 - - - - - - -
29/07:30pm 22.0 ESE 16 19 1018.2 - 0.0 - - - - - - -
29/07:00pm 21.9 ESE 14 19 1017.9 - 0.0 - - - - - - -
29/06:30pm 21.8 ESE 14 19 1017.5 - 0.0 - - - - - - -
29/06:00pm 21.9 ESE 13 18 1017.1 - 0.0 - - - - - - -
29/05:30pm 22.3 ESE 16 21 1016.9 - 0.0 - - - - - - -
29/05:00pm 22.3 ESE 12 18 1016.8 - 0.0 - - - - - - -
29/04:30pm 22.4 ESE 9 15 1016.9 - 0.0 - - - - - - -
29/04:00pm 22.0 SE 10 16 1016.8 - 0.0 - - - - - - -
29/03:30pm 22.4 SE 8 13 1016.8 - 0.0 - - - - - - -
29/03:00pm 22.5 SE 11 17 1017.0 - 0.0 - - - - - - -
29/02:30pm 22.8 SE 9 16 1017.1 - 0.0 - - - - - - -
29/02:00pm 21.9 S 9 12 1017.5 - 0.0 - - - - - - -
29/01:30pm 21.7 S 13 15 1017.8 - 0.0 - - - - - - -
29/01:00pm 21.5 S 13 15 1018.2 - 0.0 - - - - - - -
29/12:30pm 21.3 S 14 16 1018.5 - 0.0 - - - - - - -
29/12:00pm 21.1 S 13 15 1019.1 - 0.0 - - - - - - -
29/11:30am 21.0 S 15 17 1019.4 - 0.0 - - - - - - -
29/11:00am 21.0 SSW 14 17 1019.7 - 0.0 - - - - - - -
29/10:30am 20.5 SSW 12 15 1020.1 - 0.0 - - - - - - -
29/10:00am 20.0 SSW 11 13 1020.2 - 0.0 - - - - - - -
29/09:30am 19.8 SSW 11 12 1020.1 - 0.0 - - - - - - -
29/09:00am 19.3 SSW 10 12 1020.0 - 0.0 - - - - - - -
29/08:30am 18.3 SW 9 11 1019.7 - 0.0 - - - - - - -
29/08:00am 17.8 SW 9 11 1019.5 - 0.0 - - - - - - -
29/07:30am 17.7 SW 9 11 1019.2 - 0.0 - - - - - - -
29/07:00am 16.6 SW 9 11 1019.0 - 0.0 - - - - - - -
29/06:30am 16.9 SW 9 11 1018.8 - 0.0 - - - - - - -
29/06:00am 17.5 SW 11 12 1018.6 - 0.0 - - - - - - -
29/05:30am 17.1 WSW 10 11 1018.5 - 0.0 - - - - - - -
29/05:00am 16.9 WSW 9 10 1018.3 - 0.0 - - - - - - -
29/04:30am 17.7 WSW 9 10 1018.0 - 0.0 - - - - - - -
29/04:00am 17.6 SW 9 11 1018.0 - 0.0 - - - - - - -
29/03:30am 17.4 WSW 8 9 1018.2 - 0.0 - - - - - - -
29/03:00am 17.9 SW 9 9 1018.1 - 0.0 - - - - - - -
29/02:30am 18.3 SW 7 9 1018.3 - 0.0 - - - - - - -
29/02:00am 18.3 W 6 7 1018.4 - 0.0 - - - - - - -
29/01:30am 18.7 SW 8 9 1018.3 - 0.0 - - - - - - -
29/01:00am 18.8 SW 10 11 1018.3 - 0.0 - - - - - - -
29/12:30am 18.2 SW 9 10 1018.5 - 0.0 - - - - - - -
29/12:00am 18.4 SW 9 10 1018.5 - 0.0 - - - - - - -
 
Date/Time
EST
Temp

°C
Wind Pressure Rain
since 9am
mm
Weather Cloud Vis
km
Sea
Height
m
Swell
Dir
 
Speed
knots
Gust
knots
hPa Trend Height
m
Period
s
Dir
28/11:30pm 18.7 WSW 9 9 1018.6 - 0.0 - - - - - - -
28/11:00pm 19.1 WSW 9 9 1018.7 - 0.0 - - - - - - -
28/10:30pm 20.0 WSW 7 9 1018.8 - 0.0 - - - - - - -
28/10:00pm 21.2 ESE 3 6 1018.5 - 0.0 - - - - - - -
28/09:30pm 21.6 NE 5 6 1018.5 - 0.0 - - - - - - -
28/09:00pm 21.7 NE 6 8 1018.5 - 0.0 - - - - - - -
28/08:30pm 21.7 NE 7 9 1018.4 - 0.0 - - - - - - -
28/08:00pm 21.8 NE 7 8 1018.1 - 0.0 - - - - - - -
28/07:30pm 21.7 NE 8 10 1017.8 - 0.0 - - - - - - -
28/07:00pm 21.7 NE 9 11 1017.4 - 0.0 - - - - - - -
28/06:30pm 21.7 ENE 9 11 1017.0 - 0.0 - - - - - - -
28/06:00pm 21.8 ENE 8 10 1016.7 - 0.0 - - - - - - -
28/05:30pm 21.9 ENE 9 11 1016.5 - 0.0 - - - - - - -
28/05:00pm 22.1 ENE 9 11 1016.2 - 0.0 - - - - - - -
28/04:30pm 22.0 E 11 12 1016.2 - 0.0 - - - - - - -
28/04:00pm 22.1 ESE 10 13 1015.9 - 0.0 - - - - - - -
28/03:30pm 22.2 ESE 11 13 1015.9 - 0.0 - - - - - - -
28/03:00pm 22.3 ESE 11 16 1016.1 - 0.0 - - - - - - -
28/02:30pm 21.9 ESE 13 16 1016.5 - 0.0 - - - - - - -
28/02:00pm 22.5 SE 9 15 1016.8 - 0.0 - - - - - - -
28/01:30pm 22.4 SE 9 16 1017.0 - 0.0 - - - - - - -
28/01:00pm 22.8 SE 8 12 1017.4 - 0.0 - - - - - - -
28/12:30pm 22.0 S 11 15 1017.9 - 0.0 - - - - - - -
28/12:00pm 21.8 S 14 17 1018.2 - 0.0 - - - - - - -
28/11:30am 21.8 S 13 15 1018.7 - 0.0 - - - - - - -
28/11:00am 21.6 S 14 17 1019.0 - 0.0 - - - - - - -
28/10:30am 21.4 S 12 14 1019.2 - 0.0 - - - - - - -
28/10:00am 21.1 SSW 11 15 1019.3 - 0.0 - - - - - - -
28/09:30am 20.4 SW 10 13 1019.4 - 0.0 - - - - - - -
28/09:00am 19.7 SW 8 10 1019.2 - 0.0 - - - - - - -
28/08:30am 18.9 SW 9 11 1019.0 - 0.0 - - - - - - -
28/08:00am 19.0 SW 10 11 1018.7 - 0.0 - - - - - - -
28/07:30am 18.8 SW 8 9 1018.3 - 0.0 - - - - - - -
28/07:00am 18.7 SW 9 11 1018.0 - 0.0 - - - - - - -
28/06:30am 18.1 WSW 10 11 1017.5 - 0.0 - - - - - - -
28/06:00am 18.3 WSW 9 10 1017.1 - 0.0 - - - - - - -
28/05:30am 18.1 W 6 8 1016.7 - 0.0 - - - - - - -
28/05:00am 19.3 WSW 8 10 1016.5 - 0.0 - - - - - - -
28/04:30am 19.0 SW 10 11 1016.3 - 0.0 - - - - - - -
28/04:00am 18.6 WSW 9 11 1016.4 - 0.0 - - - - - - -
28/03:30am 18.5 SW 9 10 1016.4 - 0.0 - - - - - - -
28/03:00am 18.9 SW 9 11 1016.4 - 0.0 - - - - - - -
28/02:30am 18.1 SW 8 9 1016.5 - 0.0 - - - - - - -

Other Formats:

Comma delimited format used in spreadsheet applications
http://www.bom.gov.au/fwo/IDQ60701/IDQ60701.94295.axf

JavaScript Object Notation format (JSON) in row-major order
http://www.bom.gov.au/fwo/IDQ60701/IDQ60701.94295.json